createdAt,value
2022-10-18T00:01:08.825Z,14.75
2022-10-18T00:06:11.210Z,14.69
2022-10-18T00:08:39.936Z,14.66
2022-10-18T00:11:08.177Z,14.63
2022-10-18T00:13:37.077Z,14.68
2022-10-18T00:16:10.154Z,14.66
2022-10-18T00:18:38.120Z,14.65
2022-10-18T00:21:09.959Z,14.63
2022-10-18T00:23:38.051Z,14.61
2022-10-18T00:26:11.857Z,14.58
2022-10-18T00:28:41.089Z,14.52
2022-10-18T00:31:27.456Z,14.43
2022-10-18T00:33:58.292Z,14.38
2022-10-18T00:36:29.003Z,14.35
2022-10-18T00:38:57.899Z,14.29
2022-10-18T00:41:31.006Z,14.22
2022-10-18T00:44:26.728Z,14.19
2022-10-18T00:47:08.724Z,14.21
2022-10-18T00:49:42.734Z,14.20
2022-10-18T00:52:35.791Z,14.19
2022-10-18T00:55:06.498Z,14.19
2022-10-18T00:57:35.501Z,14.18
2022-10-18T01:00:09.865Z,14.15
2022-10-18T01:02:40.366Z,14.13
2022-10-18T01:05:10.916Z,14.10
2022-10-18T01:08:28.425Z,14.09
2022-10-18T01:11:05.303Z,14.06
2022-10-18T01:13:52.116Z,14.03
2022-10-18T01:16:32.781Z,14.03
2022-10-18T01:19:16.109Z,14.07
2022-10-18T01:21:54.528Z,14.07
2022-10-18T01:25:00.793Z,14.08
2022-10-18T01:28:13.610Z,14.10
2022-10-18T01:30:50.592Z,14.08
2022-10-18T01:33:43.960Z,14.06
2022-10-18T01:36:15.101Z,14.02
2022-10-18T01:38:45.081Z,13.97
2022-10-18T01:41:16.172Z,13.94
2022-10-18T01:43:46.994Z,13.92
2022-10-18T01:46:20.387Z,13.91
2022-10-18T01:48:49.380Z,13.91
2022-10-18T01:51:29.023Z,13.95
2022-10-18T01:53:57.301Z,13.94
2022-10-18T01:56:28.770Z,13.92
2022-10-18T01:59:34.709Z,13.93
2022-10-18T02:02:08.720Z,13.93
2022-10-18T02:04:51.846Z,13.92
2022-10-18T02:07:34.560Z,13.92
2022-10-18T02:12:51.695Z,13.88
2022-10-18T02:15:38.301Z,13.85
2022-10-18T02:18:12.515Z,13.84
2022-10-18T02:20:40.487Z,13.83
2022-10-18T02:23:10.911Z,13.86
2022-10-18T02:25:39.393Z,13.86
2022-10-18T02:28:07.685Z,13.86
2022-10-18T02:30:44.853Z,13.85
2022-10-18T02:33:31.667Z,13.84
2022-10-18T02:36:24.107Z,13.83
2022-10-18T02:38:56.376Z,13.81
2022-10-18T02:41:27.007Z,13.79
2022-10-18T02:43:55.079Z,13.78
2022-10-18T02:46:23.826Z,13.77
2022-10-18T02:48:52.041Z,13.74
2022-10-18T02:51:20.112Z,13.73
2022-10-18T02:53:48.082Z,13.72
2022-10-18T02:56:16.869Z,13.76
2022-10-18T02:58:44.941Z,13.75
2022-10-18T03:01:13.074Z,13.74
2022-10-18T03:03:41.186Z,13.75
2022-10-18T03:06:09.461Z,13.74
2022-10-18T03:08:38.045Z,13.73
2022-10-18T03:11:06.427Z,13.69
2022-10-18T03:13:34.626Z,13.67
2022-10-18T03:16:02.876Z,13.66
2022-10-18T03:18:31.048Z,13.63
2022-10-18T03:21:03.830Z,13.60
2022-10-18T03:23:31.901Z,13.57
2022-10-18T03:25:59.975Z,13.55
2022-10-18T03:28:28.136Z,13.58
2022-10-18T03:31:04.603Z,13.57
2022-10-18T03:33:33.400Z,13.56
2022-10-18T03:36:01.476Z,13.56
2022-10-18T03:38:29.443Z,13.56
2022-10-18T03:40:57.515Z,13.53
2022-10-18T03:43:25.483Z,13.51
2022-10-18T03:45:53.554Z,13.47
2022-10-18T03:48:21.525Z,13.45
2022-10-18T03:50:49.492Z,13.43
2022-10-18T03:53:17.568Z,13.42
2022-10-18T03:55:45.532Z,13.39
2022-10-18T03:58:13.605Z,13.37
2022-10-18T04:00:41.676Z,13.39
2022-10-18T04:03:10.259Z,13.35
2022-10-18T04:05:38.331Z,13.31
2022-10-18T04:08:06.402Z,13.29
2022-10-18T04:10:34.371Z,13.27
2022-10-18T04:13:02.341Z,13.23
2022-10-18T04:15:30.412Z,13.17
2022-10-18T04:17:58.674Z,13.11
2022-10-18T04:20:27.528Z,13.08
2022-10-18T04:22:57.697Z,13.04
2022-10-18T04:25:26.076Z,13.02
2022-10-18T04:27:54.045Z,13.05
2022-10-18T04:30:22.014Z,13.03
2022-10-18T04:32:49.982Z,13.00
2022-10-18T04:35:18.159Z,12.98
2022-10-18T04:37:46.126Z,12.94
2022-10-18T04:40:14.094Z,12.90
2022-10-18T04:42:42.063Z,12.88
2022-10-18T04:45:11.239Z,12.85
2022-10-18T04:47:39.436Z,12.82
2022-10-18T04:50:08.127Z,12.80
2022-10-18T04:52:36.162Z,12.79
2022-10-18T04:55:04.820Z,12.82
2022-10-18T04:57:33.046Z,12.81
2022-10-18T05:00:01.347Z,12.80
2022-10-18T05:02:29.712Z,12.79
2022-10-18T05:04:57.984Z,12.77
2022-10-18T05:07:26.157Z,12.72
2022-10-18T05:09:54.227Z,12.69
2022-10-18T05:12:22.606Z,12.66
2022-10-18T05:14:50.677Z,12.65
2022-10-18T05:17:18.670Z,12.61
2022-10-18T05:19:46.671Z,12.61
2022-10-18T05:22:15.000Z,12.62
2022-10-18T05:24:42.963Z,12.63
2022-10-18T05:27:11.342Z,12.63
2022-10-18T05:29:39.312Z,12.63
2022-10-18T05:32:07.279Z,12.62
2022-10-18T05:34:35.454Z,12.64
2022-10-18T05:37:03.525Z,12.65
2022-10-18T05:39:31.598Z,12.66
2022-10-18T05:42:00.282Z,12.66
2022-10-18T05:44:28.363Z,12.66
2022-10-18T05:46:56.424Z,12.71
2022-10-18T05:49:24.598Z,12.73
2022-10-18T05:51:52.773Z,12.75
2022-10-18T05:54:21.253Z,12.77
2022-10-18T05:56:49.222Z,12.80
2022-10-18T05:59:17.200Z,12.82
2022-10-18T06:01:45.776Z,12.85
2022-10-18T06:04:13.743Z,12.87
2022-10-18T06:06:41.818Z,12.87
2022-10-18T06:09:10.195Z,12.86
2022-10-18T06:11:38.274Z,12.88
2022-10-18T06:14:07.976Z,12.96
2022-10-18T06:19:05.346Z,13.03
2022-10-18T06:21:33.417Z,13.08
2022-10-18T06:24:01.489Z,13.11
2022-10-18T06:26:29.663Z,13.15
2022-10-18T06:28:57.796Z,13.17
2022-10-18T06:31:26.113Z,13.19
2022-10-18T06:33:57.098Z,13.20
2022-10-18T06:36:25.534Z,13.20
2022-10-18T06:38:54.659Z,13.20
2022-10-18T06:41:23.314Z,13.24
2022-10-18T06:43:53.715Z,13.29
2022-10-18T06:46:21.810Z,13.34
2022-10-18T06:48:49.885Z,13.35
2022-10-18T06:51:18.569Z,13.39
2022-10-18T06:53:59.104Z,13.44
2022-10-18T06:56:27.818Z,13.49
2022-10-18T06:58:55.806Z,13.55
2022-10-18T07:01:23.915Z,13.60
2022-10-18T07:03:53.643Z,13.62
2022-10-18T07:06:23.585Z,13.64
2022-10-18T07:08:55.446Z,13.70
2022-10-18T07:11:26.355Z,13.81
2022-10-18T07:14:01.008Z,13.89
2022-10-18T07:16:29.539Z,13.94
2022-10-18T07:18:57.663Z,13.99
2022-10-18T07:21:26.863Z,14.05
2022-10-18T07:23:56.775Z,14.11
2022-10-18T07:26:30.791Z,14.15
2022-10-18T07:29:02.531Z,14.21
2022-10-18T07:31:30.616Z,14.26
2022-10-18T07:33:58.789Z,14.31
2022-10-18T07:36:27.224Z,14.35
2022-10-18T07:38:55.241Z,14.39
2022-10-18T07:41:23.516Z,14.44
2022-10-18T07:43:53.125Z,14.55
2022-10-18T07:46:22.526Z,14.62
2022-10-18T07:48:51.550Z,14.67
2022-10-18T07:51:22.559Z,14.72
2022-10-18T07:53:50.735Z,14.77
2022-10-18T07:56:21.951Z,14.84
2022-10-18T07:58:52.819Z,14.91
2022-10-18T08:01:22.664Z,14.96
2022-10-18T08:03:51.594Z,15.00
2022-10-18T08:06:21.292Z,15.03
2022-10-18T08:08:49.714Z,15.08
2022-10-18T08:11:21.568Z,15.13
2022-10-18T08:13:49.846Z,15.21
2022-10-18T08:16:35.738Z,15.33
2022-10-18T08:19:04.523Z,15.40
2022-10-18T08:21:32.705Z,15.47
2022-10-18T08:24:00.671Z,15.55
2022-10-18T08:26:28.634Z,15.62
2022-10-18T08:29:17.746Z,15.70
2022-10-18T08:31:44.744Z,15.80
2022-10-18T08:34:18.715Z,15.89
2022-10-18T08:36:47.851Z,15.97
2022-10-18T08:39:15.819Z,16.04
2022-10-18T08:41:54.336Z,16.11
2022-10-18T08:44:30.606Z,16.17
2022-10-18T08:47:11.679Z,16.26
2022-10-18T08:49:51.039Z,16.34
2022-10-18T08:52:45.244Z,16.42
2022-10-18T08:55:27.806Z,16.51
2022-10-18T08:57:58.290Z,16.60
2022-10-18T09:00:34.703Z,16.67
2022-10-18T09:03:40.928Z,16.75
2022-10-18T09:06:25.526Z,16.87
2022-10-18T09:09:08.931Z,16.99
2022-10-18T09:12:32.895Z,17.07
2022-10-18T09:15:20.569Z,17.21
2022-10-18T09:17:54.480Z,17.34
2022-10-18T09:20:46.613Z,17.45
2022-10-18T09:23:23.872Z,17.56
2022-10-18T09:26:00.857Z,17.68
2022-10-18T09:28:58.261Z,17.78
2022-10-18T09:31:32.558Z,17.87
2022-10-18T09:34:08.616Z,17.94
2022-10-18T09:36:39.113Z,18.02
2022-10-18T09:39:12.543Z,18.09
2022-10-18T09:41:49.827Z,18.15
2022-10-18T09:44:25.682Z,18.21
2022-10-18T09:47:02.768Z,18.22
2022-10-18T09:49:40.564Z,18.25
2022-10-18T09:52:33.899Z,18.29
2022-10-18T09:55:13.673Z,18.36
2022-10-18T09:57:46.968Z,18.43
2022-10-18T10:00:48.833Z,18.53
2022-10-18T10:03:17.107Z,18.64
2022-10-18T10:05:45.920Z,18.71
2022-10-18T10:08:13.967Z,18.78
2022-10-18T10:10:47.574Z,18.85
2022-10-18T10:13:24.547Z,18.92
2022-10-18T10:16:00.400Z,18.98
2022-10-18T10:18:34.514Z,19.07
2022-10-18T10:21:15.184Z,19.17
2022-10-18T10:23:54.106Z,19.26
2022-10-18T10:26:23.920Z,19.34
2022-10-18T10:28:52.468Z,19.38
2022-10-18T10:31:32.139Z,19.46
2022-10-18T10:34:03.189Z,19.53
2022-10-18T10:36:32.789Z,19.60
2022-10-18T10:39:12.420Z,19.65
2022-10-18T10:41:41.523Z,19.68
2022-10-18T10:44:34.588Z,19.70
2022-10-18T10:47:03.169Z,19.75
2022-10-18T10:49:46.193Z,19.82
2022-10-18T10:52:27.243Z,19.89
2022-10-18T10:55:23.595Z,19.95
2022-10-18T10:57:56.419Z,19.99
2022-10-18T11:00:39.922Z,20.03
2022-10-18T11:03:28.396Z,20.06
2022-10-18T11:06:01.086Z,20.10
2022-10-18T11:08:31.221Z,20.12
2022-10-18T11:11:16.918Z,20.11
2022-10-18T11:13:57.057Z,20.12
2022-10-18T11:17:22.321Z,20.12
2022-10-18T11:19:56.228Z,20.11
2022-10-18T11:22:29.143Z,20.07
2022-10-18T11:24:57.491Z,20.06
2022-10-18T11:27:38.157Z,20.04
2022-10-18T11:30:21.284Z,20.01
2022-10-18T11:33:10.346Z,19.98
2022-10-18T11:36:03.928Z,19.97
2022-10-18T11:38:47.346Z,19.94
2022-10-18T11:41:27.296Z,19.93
2022-10-18T11:44:03.669Z,19.93
2022-10-18T11:46:57.026Z,19.92
2022-10-18T11:49:45.168Z,19.92
2022-10-18T11:52:33.207Z,19.89
2022-10-18T11:55:16.230Z,19.90
2022-10-18T11:57:57.036Z,19.88
2022-10-18T12:00:39.508Z,19.86
2022-10-18T12:03:36.252Z,19.85
2022-10-18T12:06:12.486Z,19.85
2022-10-18T12:08:46.631Z,19.84
2022-10-18T12:11:30.980Z,19.85
2022-10-18T12:14:21.683Z,19.84
2022-10-18T12:16:53.606Z,19.84
2022-10-18T12:19:30.114Z,19.85
2022-10-18T12:22:11.191Z,19.86
2022-10-18T12:24:39.895Z,19.85
2022-10-18T12:27:13.580Z,19.85
2022-10-18T12:29:53.837Z,19.86
2022-10-18T12:32:27.745Z,19.86
2022-10-18T12:35:04.929Z,19.86
2022-10-18T12:37:57.996Z,19.86
2022-10-18T12:40:32.714Z,19.85
2022-10-18T12:43:09.471Z,19.84
2022-10-18T12:45:51.083Z,19.85
2022-10-18T12:48:42.661Z,19.86
2022-10-18T12:51:17.838Z,19.85
2022-10-18T12:53:52.875Z,19.85
2022-10-18T12:56:29.862Z,19.85
2022-10-18T12:59:16.166Z,19.85
2022-10-18T13:01:53.415Z,19.88
2022-10-18T13:04:27.568Z,19.90
2022-10-18T13:07:03.127Z,19.92
2022-10-18T13:09:39.260Z,19.92
2022-10-18T13:12:10.204Z,19.91
2022-10-18T13:15:25.594Z,19.92
2022-10-18T13:18:19.764Z,19.92
2022-10-18T13:21:03.297Z,19.93
2022-10-18T13:23:43.251Z,19.93
2022-10-18T13:26:32.208Z,19.93
2022-10-18T13:29:09.374Z,19.92
2022-10-18T13:31:37.771Z,19.91
2022-10-18T13:34:28.252Z,19.91
2022-10-18T13:37:06.683Z,19.92
2022-10-18T13:39:35.292Z,19.92
2022-10-18T13:42:03.234Z,19.91
2022-10-18T13:44:40.369Z,19.90
2022-10-18T13:47:32.740Z,19.93
2022-10-18T13:50:03.633Z,19.91
2022-10-18T13:52:44.160Z,19.92
2022-10-18T13:55:36.296Z,19.93
2022-10-18T13:59:05.871Z,19.92
2022-10-18T14:01:54.004Z,19.90
2022-10-18T14:05:16.583Z,19.89
2022-10-18T14:07:51.396Z,19.88
2022-10-18T14:11:03.274Z,19.89
2022-10-18T14:13:43.792Z,19.88
2022-10-18T14:16:50.365Z,19.88
2022-10-18T14:19:39.610Z,19.89
2022-10-18T14:22:11.903Z,19.90
2022-10-18T14:24:45.818Z,19.90
2022-10-18T14:27:34.601Z,19.88
2022-10-18T14:30:11.241Z,19.85
2022-10-18T14:32:48.117Z,19.81
2022-10-18T14:35:38.388Z,19.75
2022-10-18T14:38:13.965Z,19.70
2022-10-18T14:40:42.028Z,19.66
2022-10-18T14:43:14.095Z,19.62
2022-10-18T14:45:43.189Z,19.58
2022-10-18T14:48:22.083Z,19.54
2022-10-18T14:50:59.504Z,19.50
2022-10-18T14:53:39.454Z,19.46
2022-10-18T14:56:08.378Z,19.41
2022-10-18T14:58:38.262Z,19.38
2022-10-18T15:01:06.811Z,19.32
2022-10-18T15:03:36.141Z,19.27
2022-10-18T15:06:06.020Z,19.22
2022-10-18T15:08:40.581Z,19.15
2022-10-18T15:11:13.353Z,19.08
2022-10-18T15:13:53.722Z,19.00
2022-10-18T15:16:26.271Z,18.93
2022-10-18T15:19:07.990Z,18.86
2022-10-18T15:21:36.472Z,18.77
2022-10-18T15:24:26.454Z,18.70
2022-10-18T15:26:56.779Z,18.63
2022-10-18T15:29:25.142Z,18.56
2022-10-18T15:31:53.127Z,18.50
2022-10-18T15:34:27.937Z,18.43
2022-10-18T15:36:57.031Z,18.36
2022-10-18T15:39:27.989Z,18.31
2022-10-18T15:41:58.626Z,18.26
2022-10-18T15:44:34.890Z,18.19
2022-10-18T15:47:12.172Z,18.14
2022-10-18T15:49:46.694Z,18.09
2022-10-18T15:52:38.165Z,18.04
2022-10-18T15:55:45.412Z,17.96
2022-10-18T15:58:46.118Z,17.88
2022-10-18T16:01:23.467Z,17.81
2022-10-18T16:03:52.117Z,17.74
2022-10-18T16:06:20.290Z,17.68
2022-10-18T16:08:51.433Z,17.61
2022-10-18T16:11:25.036Z,17.54
2022-10-18T16:13:56.529Z,17.47
2022-10-18T16:16:29.470Z,17.40
2022-10-18T16:18:58.053Z,17.35
2022-10-18T16:21:32.066Z,17.29
2022-10-18T16:24:00.240Z,17.24
2022-10-18T16:26:29.418Z,17.20
2022-10-18T16:28:58.895Z,17.16
2022-10-18T16:31:29.982Z,17.11
2022-10-18T16:33:59.384Z,17.06
2022-10-18T16:36:30.238Z,17.06
2022-10-18T16:39:01.056Z,17.04
2022-10-18T16:41:29.249Z,17.01
2022-10-18T16:43:57.235Z,17.00
2022-10-18T16:46:31.825Z,16.99
2022-10-18T16:49:00.870Z,16.98
2022-10-18T16:51:29.295Z,16.97
2022-10-18T16:53:57.473Z,16.95
2022-10-18T16:56:31.689Z,16.95
2022-10-18T16:59:00.475Z,16.92
2022-10-18T17:01:28.508Z,16.90
2022-10-18T17:03:56.619Z,16.88
2022-10-18T17:06:28.073Z,16.84
2022-10-18T17:08:57.659Z,16.80
2022-10-18T17:11:28.514Z,16.76
2022-10-18T17:13:56.592Z,16.74
2022-10-18T17:16:30.403Z,16.71
2022-10-18T17:19:02.255Z,16.68
2022-10-18T17:21:31.612Z,16.63
2022-10-18T17:24:02.388Z,16.56
2022-10-18T17:26:30.829Z,16.50
2022-10-18T17:29:05.022Z,16.46
2022-10-18T17:31:33.470Z,16.46
2022-10-18T17:34:02.430Z,16.42
2022-10-18T17:36:32.580Z,16.41
2022-10-18T17:39:00.953Z,16.43
2022-10-18T17:41:29.429Z,16.45
2022-10-18T17:43:57.506Z,16.49
2022-10-18T17:46:25.781Z,16.52
2022-10-18T17:48:54.160Z,16.56
2022-10-18T17:51:22.643Z,16.60
2022-10-18T17:53:50.610Z,16.63
2022-10-18T17:56:18.784Z,16.67
2022-10-18T17:58:51.157Z,16.70
2022-10-18T18:01:22.219Z,16.74
2022-10-18T18:03:55.901Z,16.77
2022-10-18T18:06:33.991Z,16.78
2022-10-18T18:09:08.502Z,16.81
2022-10-18T18:11:38.446Z,16.84
2022-10-18T18:14:10.105Z,16.87
2022-10-18T18:16:38.858Z,16.88
2022-10-18T18:19:09.647Z,16.89
2022-10-18T18:21:39.434Z,16.92
2022-10-18T18:24:08.305Z,16.95
2022-10-18T18:26:37.318Z,16.96
2022-10-18T18:29:05.350Z,16.98
2022-10-18T18:31:39.936Z,17.00
2022-10-18T18:34:09.710Z,16.99
2022-10-18T18:36:38.718Z,17.02
2022-10-18T18:39:09.067Z,17.05
2022-10-18T18:41:38.594Z,17.08
2022-10-18T18:44:06.722Z,17.10
2022-10-18T18:46:39.706Z,17.11
2022-10-18T18:49:08.539Z,17.12
2022-10-18T18:51:40.764Z,17.11
2022-10-18T18:54:11.194Z,17.10
2022-10-18T18:56:39.262Z,17.10
2022-10-18T18:59:07.741Z,17.09
2022-10-18T19:01:37.823Z,17.08
2022-10-18T19:04:08.084Z,17.07
2022-10-18T19:06:38.920Z,17.06
2022-10-18T19:09:18.871Z,17.04
2022-10-18T19:11:48.067Z,17.04
2022-10-18T19:14:16.504Z,17.03
2022-10-18T19:16:50.037Z,17.02
2022-10-18T19:19:21.396Z,17.02
2022-10-18T19:21:52.437Z,17.02
2022-10-18T19:24:22.047Z,17.02
2022-10-18T19:26:53.086Z,17.03
2022-10-18T19:29:25.751Z,17.02
2022-10-18T19:31:56.602Z,17.01
2022-10-18T19:34:26.619Z,17.01
2022-10-18T19:36:54.894Z,17.00
2022-10-18T19:39:24.297Z,16.99
2022-10-18T19:41:58.102Z,16.97
2022-10-18T19:44:30.068Z,16.95
2022-10-18T19:46:58.957Z,16.93
2022-10-18T19:49:28.842Z,16.90
2022-10-18T19:51:57.556Z,16.88
2022-10-18T19:54:26.857Z,16.84
2022-10-18T19:56:54.927Z,16.81
2022-10-18T19:59:24.232Z,16.78
2022-10-18T20:01:52.401Z,16.75
2022-10-18T20:04:20.577Z,16.72
2022-10-18T20:06:50.161Z,16.68
2022-10-18T20:09:20.653Z,16.66
2022-10-18T20:11:49.000Z,16.64
2022-10-18T20:14:17.063Z,16.60
2022-10-18T20:16:45.133Z,16.56
2022-10-18T20:19:13.203Z,16.51
2022-10-18T20:21:41.272Z,16.47
2022-10-18T20:24:10.781Z,16.44
2022-10-18T20:26:39.709Z,16.41
2022-10-18T20:29:08.320Z,16.37
2022-10-18T20:31:39.140Z,16.34
2022-10-18T20:34:10.644Z,16.32
2022-10-18T20:36:39.226Z,16.29
2022-10-18T20:39:07.998Z,16.27
2022-10-18T20:41:38.747Z,16.24
2022-10-18T20:44:11.836Z,16.22
2022-10-18T20:46:40.415Z,16.20
2022-10-18T20:49:10.744Z,16.17
2022-10-18T20:51:38.818Z,16.14
2022-10-18T20:54:09.438Z,16.13
2022-10-18T20:56:38.969Z,16.11
2022-10-18T20:59:10.023Z,16.09
2022-10-18T21:01:39.550Z,16.07
2022-10-18T21:04:10.233Z,16.02
2022-10-18T21:06:41.957Z,15.97
2022-10-18T21:09:12.928Z,15.96
2022-10-18T21:11:45.101Z,15.94
2022-10-18T21:14:15.871Z,15.90
2022-10-18T21:16:44.644Z,15.87
2022-10-18T21:19:14.328Z,15.82
2022-10-18T21:21:44.654Z,15.75
2022-10-18T21:24:14.050Z,15.72
2022-10-18T21:26:42.434Z,15.68
2022-10-18T21:29:11.785Z,15.66
2022-10-18T21:31:41.648Z,15.66
2022-10-18T21:34:15.943Z,15.59
2022-10-18T21:36:46.187Z,15.50
2022-10-18T21:39:18.006Z,15.43
2022-10-18T21:41:46.598Z,15.37
2022-10-18T21:44:15.009Z,15.33
2022-10-18T21:46:43.420Z,15.35
2022-10-18T21:49:11.447Z,15.37
2022-10-18T21:51:40.018Z,15.37
2022-10-18T21:54:12.006Z,15.32
2022-10-18T21:56:40.486Z,15.27
2022-10-18T21:59:11.117Z,15.23
2022-10-18T22:01:40.216Z,15.17
2022-10-18T22:04:19.363Z,15.13
2022-10-18T22:06:47.416Z,15.10
2022-10-18T22:09:15.795Z,15.13
2022-10-18T22:11:47.963Z,15.11
2022-10-18T22:14:16.033Z,15.07
2022-10-18T22:16:44.001Z,15.06
2022-10-18T22:19:12.278Z,15.02
2022-10-18T22:21:40.349Z,14.97
2022-10-18T22:24:09.551Z,14.95
2022-10-18T22:26:40.178Z,14.92
2022-10-18T22:29:14.702Z,14.85
2022-10-18T22:32:02.027Z,14.74
2022-10-18T22:34:30.094Z,14.64
2022-10-18T22:36:58.166Z,14.57
2022-10-18T22:39:26.136Z,14.53
2022-10-18T22:41:56.563Z,14.53
2022-10-18T22:44:27.064Z,14.47
2022-10-18T22:46:55.061Z,14.37
2022-10-18T22:49:23.135Z,14.34
2022-10-18T22:51:51.202Z,14.37
2022-10-18T22:54:19.273Z,14.40
2022-10-18T22:56:47.345Z,14.39
2022-10-18T22:59:15.422Z,14.37
2022-10-18T23:01:43.386Z,14.32
2022-10-18T23:04:11.457Z,14.30
2022-10-18T23:06:40.027Z,14.32
2022-10-18T23:09:10.882Z,14.33
2022-10-18T23:11:39.059Z,14.33
2022-10-18T23:14:07.328Z,14.28
2022-10-18T23:16:35.785Z,14.22
2022-10-18T23:19:04.400Z,14.24
2022-10-18T23:21:33.998Z,14.34
2022-10-18T23:24:01.969Z,14.39
2022-10-18T23:26:29.936Z,14.41
2022-10-18T23:28:58.061Z,14.42
2022-10-18T23:31:33.131Z,14.42
2022-10-18T23:34:03.777Z,14.41
2022-10-18T23:36:33.877Z,14.41
2022-10-18T23:39:03.594Z,14.40
2022-10-18T23:41:31.574Z,14.39
2022-10-18T23:43:59.747Z,14.39
2022-10-18T23:46:28.536Z,14.38
2022-10-18T23:48:56.505Z,14.38
2022-10-18T23:51:24.474Z,14.38
2022-10-18T23:53:52.545Z,14.37
2022-10-18T23:56:20.617Z,14.32
2022-10-18T23:58:48.586Z,14.25
